Time,TemperatureF,DewpointF,PressureIn,WindDirection,WindDirectionDegrees,WindSpeedMPH,WindSpeedGustMPH,Humidity,HourlyPrecipIn,Conditions,Clouds,dailyrainin,SolarRadiationWatts/m^2,SoftwareType,DateUTC
2013-07-21 00:01:00,71.0,27.0,-100.00,West,263,9.0,11.0,19,0.00,,,0.00,0.000000,,2013-07-21 06:01:00,
2013-07-21 00:11:00,71.0,27.0,-100.00,West,263,9.0,11.0,19,0.00,,,0.00,0.000000,,2013-07-21 06:11:00,
2013-07-21 00:22:00,68.0,25.0,-100.00,SSW,204,1.0,13.0,20,0.00,,,0.00,0.000000,,2013-07-21 06:22:00,
2013-07-21 00:43:00,68.0,25.0,-100.00,SSW,204,1.0,13.0,20,0.00,,,0.00,0.000000,,2013-07-21 06:43:00,
2013-07-21 00:52:00,68.0,25.0,-100.00,SSW,204,1.0,13.0,20,0.00,,,0.00,0.000000,,2013-07-21 06:52:00,
2013-07-21 01:01:00,68.0,25.0,-100.00,SSW,204,1.0,13.0,20,0.00,,,0.00,0.000000,,2013-07-21 07:01:00,
2013-07-21 01:11:00,68.0,25.0,-100.00,SSW,204,1.0,13.0,20,0.00,,,0.00,0.000000,,2013-07-21 07:11:00,
2013-07-21 01:22:00,67.0,28.0,-100.00,WSW,256,10.0,11.0,23,0.00,,,0.00,0.000000,,2013-07-21 07:22:00,
2013-07-21 01:43:00,67.0,28.0,-100.00,WSW,256,10.0,11.0,23,0.00,,,0.00,0.000000,,2013-07-21 07:43:00,
2013-07-21 01:53:00,67.0,28.0,-100.00,WSW,256,10.0,11.0,23,0.00,,,0.00,0.000000,,2013-07-21 07:53:00,
2013-07-21 02:01:00,67.0,28.0,-100.00,WSW,256,10.0,11.0,23,0.00,,,0.00,0.000000,,2013-07-21 08:01:00,
2013-07-21 02:11:00,67.0,28.0,-100.00,WSW,256,10.0,11.0,23,0.00,,,0.00,0.000000,,2013-07-21 08:11:00,
2013-07-21 02:22:00,59.0,27.0,-100.00,SW,224,4.0,10.0,29,0.00,,,0.00,0.000000,,2013-07-21 08:22:00,
2013-07-21 02:43:00,59.0,27.0,-100.00,SW,224,4.0,10.0,29,0.00,,,0.00,0.000000,,2013-07-21 08:43:00,
2013-07-21 02:52:00,59.0,27.0,-100.00,SW,224,4.0,10.0,29,0.00,,,0.00,0.000000,,2013-07-21 08:52:00,
2013-07-21 03:02:00,59.0,27.0,-100.00,SW,224,4.0,10.0,29,0.00,,,0.00,0.000000,,2013-07-21 09:02:00,
2013-07-21 03:12:00,59.0,27.0,-100.00,SW,224,4.0,10.0,29,0.00,,,0.00,0.000000,,2013-07-21 09:12:00,
2013-07-21 03:22:00,63.0,29.0,-100.00,WSW,247,7.0,11.0,27,0.00,,,0.00,0.000000,,2013-07-21 09:22:00,
2013-07-21 03:52:00,63.0,29.0,-100.00,WSW,247,7.0,11.0,27,0.00,,,0.00,0.000000,,2013-07-21 09:52:00,
2013-07-21 04:02:00,63.0,29.0,-100.00,WSW,247,7.0,11.0,27,0.00,,,0.00,0.000000,,2013-07-21 10:02:00,
2013-07-21 04:11:00,63.0,29.0,-100.00,WSW,247,7.0,11.0,27,0.00,,,0.00,0.000000,,2013-07-21 10:11:00,
2013-07-21 04:22:00,60.0,27.0,-100.00,WSW,244,9.0,12.0,28,0.00,,,0.00,0.000000,,2013-07-21 10:22:00,
2013-07-21 04:43:00,60.0,27.0,-100.00,WSW,244,9.0,12.0,28,0.00,,,0.00,0.000000,,2013-07-21 10:43:00,
2013-07-21 04:52:00,60.0,27.0,-100.00,WSW,244,9.0,12.0,28,0.00,,,0.00,0.000000,,2013-07-21 10:52:00,
2013-07-21 05:02:00,60.0,27.0,-100.00,WSW,244,9.0,12.0,28,0.00,,,0.00,0.000000,,2013-07-21 11:02:00,
2013-07-21 05:12:00,60.0,27.0,-100.00,WSW,244,9.0,12.0,28,0.00,,,0.00,0.000000,,2013-07-21 11:12:00,
2013-07-21 05:22:00,58.0,30.0,-100.00,SW,234,5.0,11.0,34,0.00,,,0.00,0.000000,,2013-07-21 11:22:00,
2013-07-21 05:43:00,58.0,30.0,-100.00,SW,234,5.0,11.0,34,0.00,,,0.00,0.000000,,2013-07-21 11:43:00,
2013-07-21 05:52:00,58.0,30.0,-100.00,SW,234,5.0,11.0,34,0.00,,,0.00,0.000000,,2013-07-21 11:52:00,
2013-07-21 06:01:00,58.0,30.0,-100.00,SW,234,5.0,11.0,34,0.00,,,0.00,0.000000,,2013-07-21 12:01:00,
2013-07-21 06:11:00,58.0,30.0,-100.00,SW,234,5.0,11.0,34,0.00,,,0.00,0.000000,,2013-07-21 12:11:00,
2013-07-21 06:22:00,61.0,29.0,-100.00,WSW,241,6.0,10.0,29,0.00,,,0.00,11.000000,,2013-07-21 12:22:00,
2013-07-21 06:43:00,61.0,29.0,-100.00,WSW,241,6.0,10.0,29,0.00,,,0.00,11.000000,,2013-07-21 12:43:00,
2013-07-21 06:53:00,61.0,29.0,-100.00,WSW,241,6.0,10.0,29,0.00,,,0.00,11.000000,,2013-07-21 12:53:00,
2013-07-21 07:01:00,61.0,29.0,-100.00,WSW,241,6.0,10.0,29,0.00,,,0.00,11.000000,,2013-07-21 13:01:00,
2013-07-21 07:12:00,61.0,29.0,-100.00,WSW,241,6.0,10.0,29,0.00,,,0.00,11.000000,,2013-07-21 13:12:00,
2013-07-21 09:53:00,82.0,34.0,-100.00,NW,317,16.0,22.0,18,-99.99,,,0.00,604.000000,,2013-07-21 15:53:00,
2013-07-21 10:01:00,82.0,34.0,-100.00,NW,317,16.0,22.0,18,-99.99,,,0.00,604.000000,,2013-07-21 16:01:00,
2013-07-21 10:22:00,82.0,31.0,-100.00,NNW,328,17.0,27.0,16,0.00,,,0.00,833.000000,,2013-07-21 16:22:00,
2013-07-21 10:43:00,82.0,31.0,-100.00,NNW,328,17.0,27.0,16,0.00,,,0.00,833.000000,,2013-07-21 16:43:00,
2013-07-21 10:52:00,82.0,31.0,-100.00,NNW,328,17.0,27.0,16,0.00,,,0.00,833.000000,,2013-07-21 16:52:00,
2013-07-21 11:02:00,82.0,31.0,-100.00,NNW,328,17.0,27.0,16,0.00,,,0.00,833.000000,,2013-07-21 17:02:00,
2013-07-21 11:11:00,82.0,31.0,-100.00,NNW,328,17.0,27.0,16,0.00,,,0.00,833.000000,,2013-07-21 17:11:00,
2013-07-21 11:43:00,85.0,30.0,-100.00,NNW,337,14.0,25.0,14,0.00,,,0.00,1032.000000,,2013-07-21 17:43:00,
2013-07-21 11:53:00,85.0,30.0,-100.00,NNW,337,14.0,25.0,14,0.00,,,0.00,1032.000000,,2013-07-21 17:53:00,
2013-07-21 12:01:00,85.0,30.0,-100.00,NNW,337,14.0,25.0,14,0.00,,,0.00,1032.000000,,2013-07-21 18:01:00,
2013-07-21 12:11:00,85.0,30.0,-100.00,NNW,337,14.0,25.0,14,0.00,,,0.00,1032.000000,,2013-07-21 18:11:00,
2013-07-21 12:21:00,85.0,30.0,-100.00,NNW,337,14.0,25.0,14,0.00,,,0.00,1032.000000,,2013-07-21 18:21:00,
2013-07-21 12:22:00,86.0,23.0,-100.00,NNW,339,17.0,28.0,10,0.00,,,0.00,1181.000000,,2013-07-21 18:22:00,
2013-07-21 13:11:00,86.0,23.0,-100.00,NNW,339,17.0,28.0,10,0.00,,,0.00,1181.000000,,2013-07-21 19:11:00,
2013-07-21 19:22:00,88.0,22.0,-100.00,North,8,10.0,18.0,9,0.00,,,0.00,428.000000,,2013-07-22 01:22:00,
2013-07-21 19:42:00,88.0,22.0,-100.00,North,8,10.0,18.0,9,0.00,,,0.00,428.000000,,2013-07-22 01:42:00,
2013-07-21 19:52:00,88.0,22.0,-100.00,North,8,10.0,18.0,9,0.00,,,0.00,428.000000,,2013-07-22 01:52:00,
2013-07-21 20:02:00,88.0,22.0,-100.00,North,8,10.0,18.0,9,0.00,,,0.00,428.000000,,2013-07-22 02:02:00,
2013-07-21 20:11:00,88.0,22.0,-100.00,North,8,10.0,18.0,9,0.00,,,0.00,428.000000,,2013-07-22 02:11:00,
2013-07-21 20:22:00,80.0,37.0,-100.00,East,96,4.0,19.0,21,0.00,,,0.00,83.000000,,2013-07-22 02:22:00,
2013-07-21 20:43:00,80.0,37.0,-100.00,East,96,4.0,19.0,21,0.00,,,0.00,83.000000,,2013-07-22 02:43:00,
2013-07-21 20:52:00,80.0,37.0,-100.00,East,96,4.0,19.0,21,0.00,,,0.00,83.000000,,2013-07-22 02:52:00,
2013-07-21 21:01:00,80.0,37.0,-100.00,East,96,4.0,19.0,21,0.00,,,0.00,83.000000,,2013-07-22 03:01:00,
2013-07-21 21:12:00,80.0,37.0,-100.00,East,96,4.0,19.0,21,0.00,,,0.00,83.000000,,2013-07-22 03:12:00,
2013-07-21 21:22:00,70.0,34.0,-100.00,SSW,211,3.0,8.0,26,0.00,,,0.00,24.000000,,2013-07-22 03:22:00,
2013-07-21 21:53:00,70.0,34.0,-100.00,SSW,211,3.0,8.0,26,0.00,,,0.00,24.000000,,2013-07-22 03:53:00,
2013-07-21 22:01:00,70.0,34.0,-100.00,SSW,211,3.0,8.0,26,0.00,,,0.00,24.000000,,2013-07-22 04:01:00,
2013-07-21 22:12:00,70.0,34.0,-100.00,SSW,211,3.0,8.0,26,0.00,,,0.00,24.000000,,2013-07-22 04:12:00,
2013-07-21 22:22:00,70.0,37.0,-100.00,South,188,4.0,7.0,30,0.00,,,0.00,0.000000,,2013-07-22 04:22:00,
2013-07-21 22:43:00,70.0,37.0,-100.00,South,188,4.0,7.0,30,0.00,,,0.00,0.000000,,2013-07-22 04:43:00,
2013-07-21 23:02:00,70.0,37.0,-100.00,South,188,4.0,7.0,30,0.00,,,0.00,0.000000,,2013-07-22 05:02:00,
2013-07-21 23:11:00,70.0,37.0,-100.00,South,188,4.0,7.0,30,0.00,,,0.00,0.000000,,2013-07-22 05:11:00,
2013-07-21 23:22:00,68.0,40.0,-100.00,SSW,210,5.0,9.0,36,0.00,,,0.00,0.000000,,2013-07-22 05:22:00,
2013-07-21 23:43:00,68.0,40.0,-100.00,SSW,210,5.0,9.0,36,0.00,,,0.00,0.000000,,2013-07-22 05:43:00,
2013-07-21 23:52:00,68.0,40.0,-100.00,SSW,210,5.0,9.0,36,0.00,,,0.00,0.000000,,2013-07-22 05:52:00,